Terminal Aerodrome Forecast
Issued by NWS Louisville, KY

Home | Current Version | Previous Version | Text Only | Print | Product List | Glossary On
Versions: 1 2 3 4 5 6 7 8 9 10 11 12 13 14 15 16 17 18
089
FTUS43 KLMK 170914 AAB
TAFBWG
TAF AMD
KBWG 170914Z 1709/1806 00000KT 3SM BR SKC
      TEMPO 1709/1711 1/2SM FG
     FM171300 00000KT 6SM BR SKC
     FM171500 10005KT P6SM SCT250=

USA.gov is the U.S. government's official web portal to all federal, state and local government web resources and services.